Thursday, August 16, 2018, 1:55 AM EDT
Back to Local

KESN, Easton / Newman Field

Location: Easton, MD, United States Lat: 38.8
Local Time: 1:55 AM EDT ( 5:55 GMT) Lon: -76.067
Time Zone: US/Eastern Elev: 72 ft

Show me the last for .
Show Coded

Time T Td Feel RH Dir Speed Gust Alt SLP Vis Weather Sky Remarks
2018-08-16 01:26 75 72 79 90 - Calm - 30.09 - 10 CLR None
2018-08-16 01:07 74 72 79 91 - Calm - 30.10 - 10 CLR None
2018-08-16 00:47 75 72 80 89 - Calm - 30.09 - 10 CLR None
2018-08-16 00:27 76 73 80 88 - Calm - 30.09 - 10 CLR None
2018-08-16 00:07 76 72 80 87 - Calm - 30.09 - 10 CLR None
2018-08-15 23:47 76 72 81 86 - Calm - 30.08 - 10 CLR None
2018-08-15 23:24 77 72 81 83 - Calm - 30.08 - 10 CLR None
2018-08-15 23:07 77 72 81 84 - Calm - 30.08 - 10 CLR None
2018-08-15 22:47 77 72 81 84 - Calm - 30.08 - 10 CLR None
2018-08-15 22:27 77 71 81 82 - Calm - 30.08 - 10 CLR None
2018-08-15 21:45 77 72 81 83 - Calm - 30.07 - 10 FEW090 None
2018-08-15 20:50 81 72 85 74 - Calm - 30.06 - 10 FEW090 None
2018-08-15 19:50 82 72 88 69 240° 3 - 30.04 - 10 FEW090 None
2018-08-15 18:54 84 72 90 66 - Calm - 30.04 - 10 FEW090 None
2018-08-15 17:48 88 72 95 58 270° 7 - 30.03 - 10 CLR None
2018-08-15 16:45 90 68 94 49 250° 6 - 30.04 - 10 FEW110 None
2018-08-15 15:48 90 68 94 49 280° 5 - 30.03 - 10 FEW100 None
2018-08-15 14:52 88 68 92 52 290° 7 - 30.04 - 10 FEW100 None
2018-08-15 13:50 88 70 93 55 270° 7 - 30.05 - 10 SCT080 None
2018-08-15 12:45 86 68 90 55 320° 9 - 30.05 - 10 CLR None
2018-08-15 11:50 84 68 88 58 310° 5 - 30.06 - 10 CLR None
2018-08-15 10:50 82 70 87 65 320° 9 - 30.05 - 10 CLR None
2018-08-15 09:48 81 68 84 65 310° 7 - 30.05 - 10 CLR None
2018-08-15 08:50 79 70 83 74 310° 9 - 30.04 - 10 CLR None
2018-08-15 07:58 77 68 80 73 360° 6 - 30.02 - 10 CLR None
2018-08-15 06:50 73 68 77 83 - Calm - 30.01 - 10 CLR None
2018-08-15 05:50 73 68 77 83 - Calm - 29.99 - 10 CLR None
2018-08-15 05:36 74 67 78 78 300° 5 - 29.99 - 10 CLR None
2018-08-15 05:27 74 67 78 78 300° 3 - 29.99 - 10 CLR None
2018-08-15 05:07 74 67 78 78 300° 3 - 29.99 - 10 CLR None
2018-08-15 04:47 74 68 78 79 290° 5 - 29.99 - 10 CLR None
2018-08-15 04:26 74 68 78 81 280° 5 - 29.99 - 10 CLR None
2018-08-15 04:07 74 68 78 81 280° 5 - 29.99 - 10 CLR None
2018-08-15 03:47 75 68 79 78 290° 3 - 29.99 - 10 CLR None
2018-08-15 03:27 75 68 78 79 280° 5 - 29.99 - 10 CLR None
2018-08-15 03:07 75 68 79 77 280° 3 - 29.98 - 10 CLR None
2018-08-15 02:47 76 68 79 77 290° 3 - 29.98 - 10 CLR None
2018-08-15 02:27 76 68 79 77 290° 3 - 29.99 - 10 CLR None
2018-08-15 02:07 76 68 79 77 300° 5 - 29.99 - 10 CLR None

Support USWX by starting your Amazon purchase here.